Terminal Aerodrome Forecast
Issued by NWS

Home | Current Version | Previous Version | Text Only | Print | Product List | Glossary On
Versions: 1 2 3 4 5 6 7 8 9 10 11 12 13 14 15 16 17 18 19 20 21 22 23 24 25 26 27 28 29
000
FTUS41 KBOX 200522
TAFBAF
TAF
KBAF 200522Z 2006/2106 29004KT P6SM BKN140
     FM200900 VRB04KT P6SM SCT150
     FM201600 22006KT P6SM BKN130
     FM202300 18006KT P6SM BKN100
     FM210400 00000KT P6SM BKN040=

USA.gov is the U.S. government's official web portal to all federal, state and local government web resources and services.